createdAt,value
2019-03-06T00:01:56.168Z,4.20
2019-03-06T00:03:57.837Z,4.30
2019-03-06T00:05:59.510Z,4.30
2019-03-06T00:08:01.182Z,4.30
2019-03-06T00:10:03.378Z,4.40
2019-03-06T00:12:05.045Z,4.40
2019-03-06T00:14:06.729Z,4.40
2019-03-06T00:16:08.398Z,4.30
2019-03-06T00:18:10.065Z,4.20
2019-03-06T00:20:11.749Z,4.10
2019-03-06T00:22:13.412Z,4.10
2019-03-06T00:24:15.093Z,4.10
2019-03-06T00:26:16.765Z,4.10
2019-03-06T00:28:18.438Z,4.20
2019-03-06T00:30:20.130Z,4.10
2019-03-06T00:32:21.797Z,4.20
2019-03-06T00:34:23.485Z,4.20
2019-03-06T00:36:26.150Z,4.10
2019-03-06T00:38:27.928Z,4.10
2019-03-06T00:40:49.290Z,4.20
2019-03-06T00:42:51.059Z,4.10
2019-03-06T00:44:52.734Z,4.10
2019-03-06T00:46:54.801Z,4.00
2019-03-06T00:48:56.819Z,3.90
2019-03-06T00:50:58.489Z,3.90
2019-03-06T00:53:00.166Z,3.90
2019-03-06T00:55:01.852Z,3.90
2019-03-06T00:57:04.021Z,3.90
2019-03-06T00:59:05.701Z,3.90
2019-03-06T01:01:07.373Z,3.90
2019-03-06T01:03:09.087Z,3.90
2019-03-06T01:05:10.806Z,3.80
2019-03-06T01:07:12.863Z,3.70
2019-03-06T01:09:14.541Z,3.60
2019-03-06T01:11:16.214Z,3.60
2019-03-06T01:13:17.881Z,3.80
2019-03-06T01:15:19.578Z,3.70
2019-03-06T01:17:21.754Z,3.80
2019-03-06T01:19:23.433Z,3.80
2019-03-06T01:21:25.109Z,3.70
2019-03-06T01:23:26.782Z,3.80
2019-03-06T01:25:28.465Z,3.90
2019-03-06T01:27:30.637Z,3.90
2019-03-06T01:29:32.321Z,3.90
2019-03-06T01:31:34.007Z,3.80
2019-03-06T01:33:44.230Z,3.80
2019-03-06T01:36:14.439Z,3.80
2019-03-06T01:38:44.670Z,3.90
2019-03-06T01:40:56.489Z,3.80
2019-03-06T01:43:09.637Z,3.80
2019-03-06T01:45:11.361Z,3.80
2019-03-06T01:47:13.022Z,3.70
2019-03-06T01:49:14.681Z,3.60
2019-03-06T01:51:16.366Z,3.60
2019-03-06T01:53:18.029Z,3.60
2019-03-06T01:55:19.705Z,3.60
2019-03-06T01:57:21.373Z,3.50
2019-03-06T01:59:23.049Z,3.50
2019-03-06T02:01:24.729Z,3.50
2019-03-06T02:03:26.397Z,3.50
2019-03-06T02:05:28.330Z,3.50
2019-03-06T02:07:30.101Z,3.50
2019-03-06T02:09:31.770Z,3.40
2019-03-06T02:11:33.453Z,3.40
2019-03-06T02:13:35.118Z,3.40
2019-03-06T02:15:36.793Z,3.30
2019-03-06T02:17:38.461Z,3.40
2019-03-06T02:19:40.130Z,3.40
2019-03-06T02:21:41.819Z,3.50
2019-03-06T02:23:43.490Z,3.60
2019-03-06T02:25:45.157Z,3.60
2019-03-06T02:27:47.117Z,3.70
2019-03-06T02:29:48.785Z,3.80
2019-03-06T02:31:50.861Z,3.80
2019-03-06T02:33:52.538Z,3.80
2019-03-06T02:35:54.219Z,3.90
2019-03-06T02:37:55.897Z,3.90
2019-03-06T02:39:57.569Z,3.90
2019-03-06T02:41:59.848Z,3.90
2019-03-06T02:44:01.519Z,3.90
2019-03-06T02:46:03.202Z,3.90
2019-03-06T02:48:04.869Z,3.90
2019-03-06T02:50:07.915Z,4.00
2019-03-06T02:52:09.594Z,3.90
2019-03-06T02:54:11.586Z,3.90
2019-03-06T02:56:13.274Z,4.00
2019-03-06T02:58:21.178Z,4.00
2019-03-06T03:00:42.614Z,4.00
2019-03-06T03:02:51.074Z,4.00
2019-03-06T03:05:11.335Z,4.00
2019-03-06T03:07:15.502Z,4.10
2019-03-06T03:09:18.070Z,4.20
2019-03-06T03:11:20.002Z,4.20
2019-03-06T03:13:21.962Z,4.30
2019-03-06T03:15:23.629Z,4.30
2019-03-06T03:17:25.577Z,4.30
2019-03-06T03:19:27.260Z,4.30
2019-03-06T03:21:28.929Z,4.30
2019-03-06T03:23:30.950Z,4.30
2019-03-06T03:25:32.715Z,4.30
2019-03-06T03:27:34.406Z,4.30
2019-03-06T03:29:36.915Z,4.30
2019-03-06T03:31:38.604Z,4.30
2019-03-06T03:33:40.275Z,4.30
2019-03-06T03:35:41.949Z,4.30
2019-03-06T03:37:43.646Z,4.30
2019-03-06T03:39:45.920Z,4.30
2019-03-06T03:41:47.927Z,4.30
2019-03-06T03:43:50.222Z,4.30
2019-03-06T03:45:51.897Z,4.30
2019-03-06T03:47:53.578Z,4.30
2019-03-06T03:49:55.342Z,4.30
2019-03-06T03:51:57.282Z,4.30
2019-03-06T03:53:58.957Z,4.30
2019-03-06T03:56:00.630Z,4.30
2019-03-06T03:58:02.319Z,4.30
2019-03-06T04:00:04.593Z,4.30
2019-03-06T04:02:06.278Z,4.30
2019-03-06T04:04:07.954Z,4.30
2019-03-06T04:06:09.943Z,4.40
2019-03-06T04:08:11.735Z,4.40
2019-03-06T04:10:13.418Z,4.40
2019-03-06T04:12:15.209Z,4.40
2019-03-06T04:14:16.974Z,4.30
2019-03-06T04:16:18.678Z,4.40
2019-03-06T04:18:20.765Z,4.30
2019-03-06T04:20:22.437Z,4.30
2019-03-06T04:22:24.116Z,4.30
2019-03-06T04:24:26.139Z,4.40
2019-03-06T04:26:27.913Z,4.40
2019-03-06T04:28:29.893Z,4.40
2019-03-06T04:30:31.561Z,4.40
2019-03-06T04:32:33.245Z,4.40
2019-03-06T04:34:34.905Z,4.30
2019-03-06T04:36:36.590Z,4.30
2019-03-06T04:38:38.270Z,4.40
2019-03-06T04:40:39.950Z,4.30
2019-03-06T04:42:41.635Z,4.40
2019-03-06T04:44:43.313Z,4.40
2019-03-06T04:46:44.981Z,4.40
2019-03-06T04:48:46.668Z,4.40
2019-03-06T04:50:48.334Z,4.50
2019-03-06T04:52:50.013Z,4.80
2019-03-06T04:54:51.685Z,4.80
2019-03-06T04:56:53.357Z,5.00
2019-03-06T04:58:55.037Z,5.00
2019-03-06T05:00:56.698Z,5.00
2019-03-06T05:02:58.381Z,5.10
2019-03-06T05:05:00.055Z,5.10
2019-03-06T05:07:01.725Z,5.10
2019-03-06T05:09:05.409Z,5.10
2019-03-06T05:11:07.074Z,5.10
2019-03-06T05:13:08.764Z,5.00
2019-03-06T05:15:10.470Z,5.00
2019-03-06T05:17:30.566Z,5.00
2019-03-06T05:19:32.234Z,5.00
2019-03-06T05:21:33.901Z,4.90
2019-03-06T05:23:35.582Z,4.90
2019-03-06T05:25:37.256Z,4.90
2019-03-06T05:27:38.937Z,5.00
2019-03-06T05:29:40.602Z,5.00
2019-03-06T05:32:20.232Z,5.00
2019-03-06T05:34:21.947Z,5.00
2019-03-06T05:37:09.225Z,5.00
2019-03-06T05:39:10.908Z,4.90
2019-03-06T05:41:12.665Z,4.90
2019-03-06T05:43:14.353Z,4.80
2019-03-06T05:45:16.036Z,4.80
2019-03-06T05:47:17.718Z,4.80
2019-03-06T05:49:19.721Z,4.80
2019-03-06T05:51:21.394Z,4.80
2019-03-06T05:53:23.077Z,4.80
2019-03-06T05:55:24.756Z,4.70
2019-03-06T05:57:26.422Z,4.80
2019-03-06T05:59:28.110Z,4.80
2019-03-06T06:01:29.777Z,4.70
2019-03-06T06:03:31.465Z,4.70
2019-03-06T06:05:33.142Z,4.70
2019-03-06T06:07:35.057Z,4.70
2019-03-06T06:09:36.746Z,4.70
2019-03-06T06:11:38.423Z,4.70
2019-03-06T06:13:40.105Z,4.70
2019-03-06T06:15:41.771Z,4.70
2019-03-06T06:17:43.748Z,4.70
2019-03-06T06:19:45.502Z,4.70
2019-03-06T06:22:01.793Z,4.70
2019-03-06T06:24:07.890Z,4.80
2019-03-06T06:26:09.657Z,4.80
2019-03-06T06:28:11.701Z,4.80
2019-03-06T06:30:14.285Z,4.90
2019-03-06T06:32:15.971Z,5.00
2019-03-06T06:34:17.654Z,5.00
2019-03-06T06:36:19.333Z,5.10
2019-03-06T06:38:21.417Z,5.10
2019-03-06T06:40:23.099Z,5.20
2019-03-06T06:42:24.774Z,5.20
2019-03-06T06:44:26.458Z,5.30
2019-03-06T06:46:28.158Z,5.30
2019-03-06T06:48:30.357Z,5.40
2019-03-06T06:50:32.026Z,5.40
2019-03-06T06:53:22.165Z,5.40
2019-03-06T06:55:33.408Z,5.40
2019-03-06T06:58:19.584Z,5.40
2019-03-06T07:01:13.225Z,5.50
2019-03-06T07:03:55.438Z,5.50
2019-03-06T07:06:19.717Z,5.50
2019-03-06T07:08:44.338Z,5.50
2019-03-06T07:10:55.394Z,5.50
2019-03-06T07:13:19.629Z,5.40
2019-03-06T07:15:35.965Z,5.50
2019-03-06T07:17:43.496Z,5.50
2019-03-06T07:20:00.316Z,5.50
2019-03-06T07:22:15.990Z,5.50
2019-03-06T07:24:33.157Z,5.50
2019-03-06T07:27:00.397Z,5.60
2019-03-06T07:29:11.373Z,5.60
2019-03-06T07:31:22.877Z,5.60
2019-03-06T07:33:42.423Z,5.60
2019-03-06T07:36:11.474Z,5.70
2019-03-06T07:38:13.485Z,5.70
2019-03-06T07:40:21.209Z,5.90
2019-03-06T07:42:30.693Z,6.00
2019-03-06T07:44:52.617Z,6.10
2019-03-06T07:47:03.809Z,6.30
2019-03-06T07:49:28.102Z,6.40
2019-03-06T07:51:52.639Z,6.60
2019-03-06T07:54:01.818Z,6.70
2019-03-06T07:56:11.253Z,6.80
2019-03-06T07:58:50.677Z,6.80
2019-03-06T08:00:52.377Z,6.90
2019-03-06T08:02:57.364Z,6.90
2019-03-06T08:04:59.039Z,6.90
2019-03-06T08:07:07.085Z,7.00
2019-03-06T08:09:11.970Z,7.00
2019-03-06T08:11:21.773Z,7.00
2019-03-06T08:13:29.270Z,7.10
2019-03-06T08:15:48.747Z,7.10
2019-03-06T08:17:58.608Z,7.10
2019-03-06T08:20:20.221Z,7.20
2019-03-06T08:22:33.943Z,7.20
2019-03-06T08:25:01.120Z,7.40
2019-03-06T08:27:03.149Z,7.40
2019-03-06T08:29:04.824Z,7.50
2019-03-06T08:31:19.262Z,7.50
2019-03-06T08:33:20.945Z,7.60
2019-03-06T08:35:22.610Z,7.70
2019-03-06T08:37:24.623Z,7.70
2019-03-06T08:39:26.577Z,7.80
2019-03-06T08:41:28.258Z,7.90
2019-03-06T08:43:30.189Z,8.00
2019-03-06T08:45:42.890Z,8.10
2019-03-06T08:47:52.443Z,8.20
2019-03-06T08:50:20.274Z,8.20
2019-03-06T08:52:34.733Z,8.10
2019-03-06T08:54:43.474Z,8.20
2019-03-06T08:56:55.213Z,8.20
2019-03-06T08:59:03.322Z,8.20
2019-03-06T09:01:40.598Z,8.20
2019-03-06T09:03:50.274Z,8.30
2019-03-06T09:05:59.010Z,8.00
2019-03-06T09:08:13.775Z,8.10
2019-03-06T09:10:47.568Z,8.00
2019-03-06T09:12:55.066Z,8.10
2019-03-06T09:15:10.022Z,8.20
2019-03-06T09:17:19.878Z,8.20
2019-03-06T09:19:50.020Z,8.20
2019-03-06T09:22:20.169Z,8.30
2019-03-06T09:24:30.262Z,8.30
2019-03-06T09:26:36.109Z,8.40
2019-03-06T09:29:00.779Z,8.40
2019-03-06T09:31:16.557Z,8.50
2019-03-06T09:33:23.369Z,8.60
2019-03-06T09:35:56.561Z,8.70
2019-03-06T09:38:11.436Z,8.80
2019-03-06T09:40:25.858Z,9.00
2019-03-06T09:42:34.797Z,9.20
2019-03-06T09:44:56.147Z,9.30
2019-03-06T09:47:16.205Z,9.60
2019-03-06T09:49:30.629Z,9.50
2019-03-06T09:51:50.510Z,9.70
2019-03-06T09:54:10.591Z,9.60
2019-03-06T09:56:50.114Z,9.30
2019-03-06T09:59:12.683Z,9.60
2019-03-06T10:01:29.176Z,9.70
2019-03-06T10:03:44.041Z,9.70
2019-03-06T10:06:02.065Z,9.70
2019-03-06T10:08:22.039Z,9.40
2019-03-06T10:10:46.362Z,9.50
2019-03-06T10:13:01.001Z,9.50
2019-03-06T10:15:10.324Z,9.40
2019-03-06T10:17:16.885Z,9.60
2019-03-06T10:19:31.465Z,9.60
2019-03-06T10:21:33.213Z,9.60
2019-03-06T10:23:34.998Z,9.80
2019-03-06T10:25:36.770Z,10.00
2019-03-06T10:27:38.540Z,10.00
2019-03-06T10:29:40.227Z,9.90
2019-03-06T10:31:41.987Z,10.00
2019-03-06T10:33:43.761Z,10.10
2019-03-06T10:35:46.292Z,10.10
2019-03-06T10:37:48.090Z,10.20
2019-03-06T10:39:49.859Z,10.10
2019-03-06T10:41:51.621Z,10.30
2019-03-06T10:43:53.402Z,10.60
2019-03-06T10:45:55.174Z,10.60
2019-03-06T10:47:56.947Z,10.50
2019-03-06T10:49:58.729Z,10.40
2019-03-06T10:52:00.504Z,10.30
2019-03-06T10:54:02.292Z,10.30
2019-03-06T10:56:04.057Z,10.30
2019-03-06T10:58:05.821Z,10.20
2019-03-06T11:00:12.390Z,10.30
2019-03-06T11:02:14.071Z,10.10
2019-03-06T11:04:32.254Z,10.10
2019-03-06T11:06:34.025Z,10.10
2019-03-06T11:08:36.273Z,10.30
2019-03-06T11:10:38.041Z,10.20
2019-03-06T11:12:39.810Z,10.10
2019-03-06T11:14:41.591Z,10.20
2019-03-06T11:16:44.462Z,10.20
2019-03-06T11:18:46.546Z,10.30
2019-03-06T11:20:48.217Z,10.40
2019-03-06T11:22:49.910Z,10.30
2019-03-06T11:24:51.588Z,10.50
2019-03-06T11:26:53.370Z,10.50
2019-03-06T11:28:55.051Z,10.60
2019-03-06T11:30:57.073Z,10.60
2019-03-06T11:32:58.874Z,10.80
2019-03-06T11:35:00.561Z,11.00
2019-03-06T11:37:02.334Z,11.00
2019-03-06T11:39:07.058Z,11.10
2019-03-06T11:41:09.034Z,11.10
2019-03-06T11:43:11.109Z,11.20
2019-03-06T11:45:13.969Z,11.20
2019-03-06T11:47:15.637Z,11.20
2019-03-06T11:49:17.418Z,11.20
2019-03-06T11:51:19.189Z,11.30
2019-03-06T11:53:20.858Z,11.30
2019-03-06T11:55:22.637Z,11.20
2019-03-06T11:57:24.405Z,11.40
2019-03-06T11:59:26.077Z,11.30
2019-03-06T12:01:29.569Z,11.40
2019-03-06T12:03:31.343Z,11.40
2019-03-06T12:05:33.718Z,11.40
2019-03-06T12:07:35.679Z,11.50
2019-03-06T12:09:37.454Z,11.60
2019-03-06T12:11:39.120Z,11.70
2019-03-06T12:13:40.889Z,11.70
2019-03-06T12:15:45.046Z,11.80
2019-03-06T12:17:47.408Z,11.90
2019-03-06T12:19:49.298Z,12.10
2019-03-06T12:21:50.970Z,12.10
2019-03-06T12:23:52.743Z,12.10
2019-03-06T12:25:54.418Z,12.10
2019-03-06T12:27:56.445Z,12.10
2019-03-06T12:29:58.218Z,12.20
2019-03-06T12:31:59.885Z,12.20
2019-03-06T12:34:01.752Z,12.20
2019-03-06T12:36:05.574Z,12.20
2019-03-06T12:38:07.258Z,12.30
2019-03-06T12:40:13.044Z,12.40
2019-03-06T12:42:14.425Z,12.40
2019-03-06T12:44:17.038Z,12.40
2019-03-06T12:46:24.198Z,12.50
2019-03-06T12:48:26.206Z,12.60
2019-03-06T12:50:28.893Z,12.60
2019-03-06T12:52:30.932Z,12.60
2019-03-06T12:54:32.726Z,12.60
2019-03-06T12:56:34.626Z,12.80
2019-03-06T12:58:36.572Z,12.90
2019-03-06T13:00:38.332Z,12.80
2019-03-06T13:02:40.002Z,12.90
2019-03-06T13:04:42.166Z,12.80
2019-03-06T13:06:44.133Z,12.80
2019-03-06T13:08:50.392Z,12.80
2019-03-06T13:10:49.466Z,12.80
2019-03-06T13:12:51.155Z,12.80
2019-03-06T13:14:52.927Z,12.80
2019-03-06T13:16:54.701Z,12.80
2019-03-06T13:18:56.478Z,12.80
2019-03-06T13:20:58.173Z,12.80
2019-03-06T13:22:59.938Z,12.80
2019-03-06T13:25:01.712Z,12.80
2019-03-06T13:27:03.486Z,12.80
2019-03-06T13:29:05.257Z,12.80
2019-03-06T13:31:07.546Z,12.80
2019-03-06T13:33:19.810Z,12.90
2019-03-06T13:35:21.577Z,12.90
2019-03-06T13:37:23.352Z,12.90
2019-03-06T13:39:25.126Z,12.80
2019-03-06T13:41:27.289Z,12.90
2019-03-06T13:43:29.073Z,12.90
2019-03-06T13:45:30.834Z,12.80
2019-03-06T13:47:32.619Z,12.80
2019-03-06T13:49:34.385Z,12.70
2019-03-06T13:51:36.070Z,12.70
2019-03-06T13:53:37.833Z,12.60
2019-03-06T13:55:39.499Z,12.60
2019-03-06T13:57:41.279Z,12.60
2019-03-06T13:59:43.037Z,12.70
2019-03-06T14:01:44.718Z,12.60
2019-03-06T14:03:46.760Z,12.60
2019-03-06T14:05:48.517Z,12.70
2019-03-06T14:07:56.262Z,12.70
2019-03-06T14:09:54.265Z,12.70
2019-03-06T14:11:56.332Z,12.70
2019-03-06T14:13:58.104Z,12.70
2019-03-06T14:15:59.865Z,12.70
2019-03-06T14:18:01.645Z,12.70
2019-03-06T14:20:04.237Z,12.70
2019-03-06T14:22:06.013Z,12.60
2019-03-06T14:24:07.783Z,12.50
2019-03-06T14:26:09.745Z,12.50
2019-03-06T14:28:11.542Z,12.50
2019-03-06T14:30:13.965Z,12.50
2019-03-06T14:32:15.750Z,12.50
2019-03-06T14:34:17.521Z,12.40
2019-03-06T14:36:19.285Z,12.40
2019-03-06T14:38:21.070Z,12.40
2019-03-06T14:40:27.341Z,12.40
2019-03-06T14:42:29.117Z,12.40
2019-03-06T14:44:31.085Z,12.40
2019-03-06T14:46:32.748Z,12.40
2019-03-06T14:48:34.529Z,12.50
2019-03-06T14:50:36.289Z,12.50
2019-03-06T14:52:38.210Z,12.50
2019-03-06T14:54:39.978Z,12.50
2019-03-06T14:56:41.638Z,12.40
2019-03-06T14:58:43.414Z,12.40
2019-03-06T15:00:45.183Z,12.40
2019-03-06T15:02:46.966Z,12.50
2019-03-06T15:04:48.735Z,12.40
2019-03-06T15:06:50.846Z,12.40
2019-03-06T15:08:52.525Z,12.30
2019-03-06T15:10:54.485Z,12.30
2019-03-06T15:12:56.510Z,12.30
2019-03-06T15:14:58.277Z,12.30
2019-03-06T15:17:00.057Z,12.30
2019-03-06T15:19:01.837Z,12.30
2019-03-06T15:21:03.610Z,12.30
2019-03-06T15:23:05.413Z,12.30
2019-03-06T15:25:10.260Z,12.30
2019-03-06T15:27:12.295Z,12.30
2019-03-06T15:29:14.573Z,12.30
2019-03-06T15:31:16.343Z,12.30
2019-03-06T15:33:18.022Z,12.30
2019-03-06T15:35:19.772Z,12.40
2019-03-06T15:37:21.558Z,12.40
2019-03-06T15:39:42.657Z,12.50
2019-03-06T15:41:37.214Z,12.50
2019-03-06T15:43:38.897Z,12.50
2019-03-06T15:45:40.678Z,12.60
2019-03-06T15:47:42.450Z,12.60
2019-03-06T15:49:44.526Z,12.50
2019-03-06T15:51:46.299Z,12.60
2019-03-06T15:53:48.085Z,12.50
2019-03-06T15:55:49.754Z,12.40
2019-03-06T15:57:51.549Z,12.40
2019-03-06T15:59:53.225Z,12.40
2019-03-06T16:01:54.894Z,12.30
2019-03-06T16:03:56.574Z,12.30
2019-03-06T16:05:58.245Z,12.40
2019-03-06T16:08:00.342Z,12.30
2019-03-06T16:10:02.123Z,12.20
2019-03-06T16:12:03.885Z,12.20
2019-03-06T16:14:05.557Z,12.20
2019-03-06T16:16:07.330Z,12.10
2019-03-06T16:18:09.042Z,12.20
2019-03-06T16:20:12.397Z,12.20
2019-03-06T16:22:14.494Z,12.10
2019-03-06T16:24:16.278Z,12.10
2019-03-06T16:26:18.242Z,12.00
2019-03-06T16:28:19.928Z,12.00
2019-03-06T16:30:21.711Z,12.00
2019-03-06T16:32:23.487Z,12.00
2019-03-06T16:34:25.253Z,12.00
2019-03-06T16:36:26.913Z,12.00
2019-03-06T16:38:28.949Z,12.00
2019-03-06T16:40:30.758Z,11.90
2019-03-06T16:42:33.765Z,12.00
2019-03-06T16:44:35.957Z,12.10
2019-03-06T16:46:37.725Z,12.00
2019-03-06T16:48:39.869Z,12.00
2019-03-06T16:50:41.930Z,12.00
2019-03-06T16:52:44.051Z,12.00
2019-03-06T16:54:45.825Z,12.10
2019-03-06T16:56:47.810Z,12.20
2019-03-06T16:58:49.576Z,12.20
2019-03-06T17:00:51.430Z,12.10
2019-03-06T17:03:13.170Z,11.80
2019-03-06T17:05:16.125Z,11.80
2019-03-06T17:07:17.789Z,11.80
2019-03-06T17:09:19.666Z,11.70
2019-03-06T17:11:21.346Z,11.90
2019-03-06T17:13:23.105Z,11.90
2019-03-06T17:15:25.574Z,11.90
2019-03-06T17:17:27.354Z,12.20
2019-03-06T17:19:29.142Z,12.20
2019-03-06T17:21:31.154Z,12.10
2019-03-06T17:23:33.025Z,12.00
2019-03-06T17:25:34.703Z,12.00
2019-03-06T17:27:36.465Z,12.00
2019-03-06T17:29:38.241Z,11.80
2019-03-06T17:31:40.117Z,11.80
2019-03-06T17:33:42.017Z,11.70
2019-03-06T17:35:43.701Z,11.80
2019-03-06T17:37:45.478Z,11.90
2019-03-06T17:39:47.153Z,11.80
2019-03-06T17:41:49.221Z,11.90
2019-03-06T17:43:50.985Z,12.00
2019-03-06T17:45:52.663Z,11.90
2019-03-06T17:47:54.663Z,11.90
2019-03-06T17:49:56.441Z,11.80
2019-03-06T17:51:58.109Z,11.80
2019-03-06T17:54:00.025Z,11.80
2019-03-06T17:56:01.801Z,12.00
2019-03-06T17:58:03.635Z,11.80
2019-03-06T18:00:05.917Z,11.70
2019-03-06T18:02:07.581Z,11.70
2019-03-06T18:04:16.320Z,11.60
2019-03-06T18:06:18.093Z,11.70
2019-03-06T18:08:20.024Z,11.50
2019-03-06T18:10:21.805Z,11.50
2019-03-06T18:12:23.570Z,11.60
2019-03-06T18:14:25.343Z,11.50
2019-03-06T18:16:27.123Z,11.50
2019-03-06T18:18:29.743Z,11.60
2019-03-06T18:20:31.406Z,11.60
2019-03-06T18:22:33.073Z,11.50
2019-03-06T18:24:34.834Z,11.60
2019-03-06T18:26:36.613Z,11.70
2019-03-06T18:28:38.381Z,11.70
2019-03-06T18:30:40.060Z,11.70
2019-03-06T18:32:41.937Z,11.70
2019-03-06T18:34:43.705Z,11.70
2019-03-06T18:36:45.494Z,11.60
2019-03-06T18:38:47.274Z,11.70
2019-03-06T18:40:49.053Z,11.70
2019-03-06T18:42:51.090Z,11.70
2019-03-06T18:44:53.247Z,11.70
2019-03-06T18:46:55.017Z,11.70
2019-03-06T18:48:56.782Z,11.70
2019-03-06T18:50:58.462Z,11.80
2019-03-06T18:53:00.228Z,11.70
2019-03-06T18:55:02.029Z,11.70
2019-03-06T18:57:03.774Z,11.70
2019-03-06T18:59:05.681Z,11.60
2019-03-06T19:01:07.354Z,11.70
2019-03-06T19:03:10.273Z,11.70
2019-03-06T19:05:12.425Z,11.70
2019-03-06T19:07:14.210Z,11.70
2019-03-06T19:09:15.969Z,11.60
2019-03-06T19:11:17.845Z,11.70
2019-03-06T19:13:19.513Z,11.70
2019-03-06T19:15:21.301Z,11.90
2019-03-06T19:17:23.084Z,11.80
2019-03-06T19:19:24.858Z,11.90
2019-03-06T19:21:26.630Z,11.80
2019-03-06T19:23:28.423Z,11.80
2019-03-06T19:25:31.274Z,11.90
2019-03-06T19:27:33.079Z,11.80
2019-03-06T19:29:35.418Z,11.90
2019-03-06T19:31:37.482Z,11.80
2019-03-06T19:33:39.249Z,11.90
2019-03-06T19:35:41.029Z,11.90
2019-03-06T19:37:43.011Z,11.80
2019-03-06T19:39:45.026Z,11.80
2019-03-06T19:41:46.812Z,11.70
2019-03-06T19:43:48.574Z,11.80
2019-03-06T19:45:50.398Z,11.70
2019-03-06T19:47:52.427Z,11.70
2019-03-06T19:49:54.093Z,11.60
2019-03-06T19:51:55.857Z,11.80
2019-03-06T19:53:57.586Z,11.80
2019-03-06T19:55:59.358Z,11.80
2019-03-06T19:58:02.742Z,11.80
2019-03-06T20:00:04.578Z,11.80
2019-03-06T20:02:06.352Z,11.90
2019-03-06T20:04:08.517Z,11.80
2019-03-06T20:06:10.198Z,11.90
2019-03-06T20:08:12.177Z,11.80
2019-03-06T20:10:13.949Z,11.80
2019-03-06T20:12:15.730Z,11.80
2019-03-06T20:14:17.501Z,11.80
2019-03-06T20:16:19.469Z,11.80
2019-03-06T20:18:21.242Z,11.90
2019-03-06T20:20:23.122Z,11.90
2019-03-06T20:22:24.901Z,11.90
2019-03-06T20:24:26.767Z,11.80
2019-03-06T20:26:28.546Z,11.70
2019-03-06T20:28:30.326Z,11.80
2019-03-06T20:30:32.397Z,11.70
2019-03-06T20:32:34.205Z,11.60
2019-03-06T20:34:35.989Z,11.80
2019-03-06T20:36:37.801Z,11.70
2019-03-06T20:38:40.002Z,11.70
2019-03-06T20:40:41.773Z,11.60
2019-03-06T20:42:43.559Z,11.60
2019-03-06T20:44:45.358Z,11.60
2019-03-06T20:46:47.196Z,11.60
2019-03-06T20:48:48.941Z,11.60
2019-03-06T20:50:50.710Z,11.60
2019-03-06T20:52:52.495Z,11.60
2019-03-06T20:54:54.267Z,11.60
2019-03-06T20:56:56.382Z,11.50
2019-03-06T20:58:58.053Z,11.50
2019-03-06T21:01:00.219Z,11.60
2019-03-06T21:03:02.366Z,11.50
2019-03-06T21:05:04.542Z,11.50
2019-03-06T21:07:06.229Z,11.50
2019-03-06T21:09:08.001Z,11.50
2019-03-06T21:11:09.782Z,11.40
2019-03-06T21:13:11.551Z,11.40
2019-03-06T21:15:14.444Z,11.40
2019-03-06T21:17:16.225Z,11.40
2019-03-06T21:19:18.197Z,11.50
2019-03-06T21:21:19.979Z,11.40
2019-03-06T21:23:21.752Z,11.40
2019-03-06T21:25:23.523Z,11.30
2019-03-06T21:27:25.694Z,11.20
2019-03-06T21:29:27.521Z,11.10
2019-03-06T21:31:29.601Z,11.20
2019-03-06T21:33:31.394Z,11.10
2019-03-06T21:35:33.245Z,11.10
2019-03-06T21:37:35.111Z,11.20
2019-03-06T21:39:36.881Z,11.30
2019-03-06T21:41:38.651Z,11.40
2019-03-06T21:43:40.433Z,11.40
2019-03-06T21:45:42.367Z,11.40
2019-03-06T21:47:44.194Z,11.50
2019-03-06T21:49:45.972Z,11.50
2019-03-06T21:51:48.044Z,11.60
2019-03-06T21:53:50.331Z,11.60
2019-03-06T21:55:52.116Z,11.60
2019-03-06T21:57:54.411Z,11.60
2019-03-06T21:59:56.181Z,11.50
2019-03-06T22:01:58.156Z,11.60
2019-03-06T22:03:59.928Z,11.50
2019-03-06T22:06:01.712Z,11.50
2019-03-06T22:08:03.483Z,11.60
2019-03-06T22:10:06.118Z,11.60
2019-03-06T22:12:07.883Z,11.60
2019-03-06T22:14:09.667Z,11.60
2019-03-06T22:16:11.330Z,11.60
2019-03-06T22:18:13.009Z,11.60
2019-03-06T22:20:15.102Z,11.50
2019-03-06T22:22:17.117Z,11.60
2019-03-06T22:24:18.897Z,11.50
2019-03-06T22:26:20.654Z,11.40
2019-03-06T22:28:22.433Z,11.40
2019-03-06T22:30:24.205Z,11.40
2019-03-06T22:32:26.322Z,11.50
2019-03-06T22:34:28.084Z,11.40
2019-03-06T22:36:29.753Z,11.30
2019-03-06T22:38:31.845Z,11.30
2019-03-06T22:40:33.521Z,11.30
2019-03-06T22:42:35.294Z,11.30
2019-03-06T22:44:37.074Z,11.40
2019-03-06T22:46:39.045Z,11.30
2019-03-06T22:48:40.813Z,11.30
2019-03-06T22:50:42.493Z,11.20
2019-03-06T22:52:44.170Z,11.10
2019-03-06T22:54:45.941Z,11.30
2019-03-06T22:56:47.709Z,11.10
2019-03-06T22:58:49.377Z,11.10
2019-03-06T23:01:04.803Z,11.10
2019-03-06T23:03:06.569Z,11.10
2019-03-06T23:05:08.603Z,11.10
2019-03-06T23:07:10.374Z,11.10
2019-03-06T23:09:12.063Z,11.00
2019-03-06T23:11:13.830Z,11.00
2019-03-06T23:13:15.836Z,11.00
2019-03-06T23:15:17.819Z,10.80
2019-03-06T23:17:19.594Z,10.80
2019-03-06T23:19:21.373Z,10.80
2019-03-06T23:21:23.050Z,10.70
2019-03-06T23:23:25.045Z,10.70
2019-03-06T23:25:26.825Z,10.70
2019-03-06T23:27:28.594Z,10.70
2019-03-06T23:29:30.385Z,10.60
2019-03-06T23:31:32.152Z,10.60
2019-03-06T23:33:33.921Z,10.50
2019-03-06T23:35:35.705Z,10.60
2019-03-06T23:37:37.486Z,10.60
2019-03-06T23:39:39.270Z,10.60
2019-03-06T23:41:41.334Z,10.60
2019-03-06T23:43:43.367Z,10.50
2019-03-06T23:45:45.864Z,10.60
2019-03-06T23:47:47.542Z,10.60
2019-03-06T23:49:49.334Z,10.60
2019-03-06T23:51:58.970Z,10.60
2019-03-06T23:54:01.043Z,10.60
2019-03-06T23:56:02.853Z,10.60
2019-03-06T23:58:04.614Z,10.60
